Time;durP1;ratioP1;P1;durP2;ratioP2;P2;SDS_P1;SDS_P2;PMS_P1;PMS_P2;Temp;Humidity;BMP_temperature;BMP_pressure;BME280_temperature;BME280_humidity;BME280_pressure;Samples;Min_cycle;Max_cycle;Signal;HPM_P1;HPM_P2
2022/01/07 00:01:15;;;;;;;2.80;2.70;;;2.00;99.90;;;;;;5026873;28;20199;-73
2022/01/07 00:03:42;;;;;;;2.80;2.70;;;2.00;99.90;;;;;;5028398;28;20265;-73
2022/01/07 00:06:09;;;;;;;3.35;3.25;;;2.00;99.90;;;;;;5026538;28;20196;-74
2022/01/07 00:08:36;;;;;;;2.90;2.80;;;1.90;99.90;;;;;;5026294;28;20439;-74
2022/01/07 00:11:05;;;;;;;2.92;2.83;;;1.90;99.90;;;;;;5026033;28;20202;-72
2022/01/07 00:13:32;;;;;;;3.03;2.92;;;1.90;99.90;;;;;;5030540;28;20637;-73
2022/01/07 00:15:59;;;;;;;3.10;2.90;;;1.90;99.90;;;;;;5025599;28;20709;-75
2022/01/07 00:18:28;;;;;;;3.08;2.97;;;1.80;99.90;;;;;;5027377;28;20219;-72
2022/01/07 00:20:55;;;;;;;3.20;3.05;;;1.80;99.90;;;;;;5023915;28;20195;-74
2022/01/07 00:23:22;;;;;;;2.53;2.42;;;1.80;99.90;;;;;;5028209;28;20238;-74
2022/01/07 00:25:50;;;;;;;2.67;2.58;;;1.70;99.90;;;;;;5027412;28;20634;-76
2022/01/07 00:28:17;;;;;;;3.40;3.20;;;1.70;99.90;;;;;;5027332;28;20215;-73
2022/01/07 00:30:44;;;;;;;2.90;2.80;;;1.70;99.90;;;;;;5029949;28;20200;-72
2022/01/07 00:33:11;;;;;;;3.00;2.90;;;1.60;99.90;;;;;;5031199;28;20776;-72
2022/01/07 00:35:40;;;;;;;3.08;2.97;;;1.60;99.90;;;;;;5025994;28;20199;-74
2022/01/07 00:38:08;;;;;;;3.30;3.20;;;1.60;99.90;;;;;;5031630;28;20220;-72
2022/01/07 00:40:35;;;;;;;3.08;2.88;;;1.60;99.90;;;;;;5029310;28;20250;-73
2022/01/07 00:43:02;;;;;;;3.38;3.20;;;1.50;99.90;;;;;;5026588;28;20847;-75
2022/01/07 00:45:29;;;;;;;3.33;3.15;;;1.40;99.90;;;;;;5029154;28;20240;-72
2022/01/07 00:47:57;;;;;;;2.88;2.67;;;1.40;99.90;;;;;;5026471;28;20227;-72
2022/01/07 00:50:26;;;;;;;3.40;3.15;;;1.40;99.90;;;;;;5027702;28;20198;-74
2022/01/07 00:52:54;;;;;;;2.95;2.85;;;1.40;99.90;;;;;;5026974;28;20226;-75
2022/01/07 00:55:22;;;;;;;3.20;3.10;;;1.40;99.90;;;;;;5030176;28;20289;-74
2022/01/07 00:57:49;;;;;;;2.90;2.80;;;1.40;99.90;;;;;;5023919;28;20709;-73
2022/01/07 01:00:19;;;;;;;2.80;2.70;;;1.40;99.90;;;;;;5027188;28;20693;-72
2022/01/07 01:02:47;;;;;;;3.20;3.10;;;1.40;99.90;;;;;;5025550;28;20219;-73
2022/01/07 01:05:15;;;;;;;2.78;2.67;;;1.40;99.90;;;;;;5030952;28;20254;-73
2022/01/07 01:07:43;;;;;;;2.90;2.80;;;1.40;99.90;;;;;;5026705;28;20292;-73
2022/01/07 01:10:13;;;;;;;3.22;3.13;;;1.40;99.90;;;;;;5023728;28;20200;-72
2022/01/07 01:12:42;;;;;;;3.25;3.13;;;1.40;99.90;;;;;;5025363;28;20744;-73
2022/01/07 01:15:13;;;;;;;3.22;3.13;;;1.30;99.90;;;;;;5024557;28;20241;-72
2022/01/07 01:17:40;;;;;;;3.03;2.92;;;1.30;99.90;;;;;;5025401;28;20233;-72
2022/01/07 01:20:10;;;;;;;2.95;2.85;;;1.30;99.90;;;;;;5028393;28;20219;-71
2022/01/07 01:22:37;;;;;;;3.20;3.10;;;1.20;99.90;;;;;;5024060;28;20225;-71
2022/01/07 01:25:05;;;;;;;3.15;3.00;;;1.20;99.90;;;;;;5024677;28;20258;-72
2022/01/07 01:27:34;;;;;;;2.80;2.70;;;1.10;99.90;;;;;;5028676;28;20605;-71
2022/01/07 01:30:02;;;;;;;3.20;2.90;;;1.10;99.90;;;;;;5025158;28;20282;-72
2022/01/07 01:32:30;;;;;;;3.30;3.10;;;1.00;99.90;;;;;;5025151;28;20223;-72
2022/01/07 01:34:56;;;;;;;2.90;2.80;;;0.90;99.90;;;;;;5028105;28;20250;-72
2022/01/07 01:37:24;;;;;;;3.30;3.20;;;0.90;99.90;;;;;;5026567;28;20227;-72
2022/01/07 01:39:51;;;;;;;3.30;3.10;;;1.00;99.90;;;;;;5026433;28;20266;-72
2022/01/07 01:42:18;;;;;;;3.38;3.17;;;1.00;99.90;;;;;;5025637;28;20269;-72
2022/01/07 01:44:47;;;;;;;3.00;2.90;;;1.00;99.90;;;;;;5025748;28;21489;-71
2022/01/07 01:47:14;;;;;;;3.33;3.22;;;1.00;99.90;;;;;;5026183;28;20219;-72
2022/01/07 01:49:41;;;;;;;3.15;3.05;;;1.00;99.90;;;;;;5026964;28;20254;-73
2022/01/07 01:52:08;;;;;;;3.30;3.20;;;1.00;99.90;;;;;;5023768;28;20277;-70
2022/01/07 01:54:35;;;;;;;3.17;3.08;;;1.10;99.90;;;;;;5025100;28;20200;-72
2022/01/07 01:57:03;;;;;;;3.60;3.40;;;1.10;99.90;;;;;;5024865;28;20732;-71
2022/01/07 01:59:32;;;;;;;3.53;3.42;;;1.00;99.90;;;;;;5023518;28;20616;-72
2022/01/07 02:02:00;;;;;;;3.20;3.10;;;0.90;99.90;;;;;;5023360;28;20195;-71
2022/01/07 02:04:28;;;;;;;3.47;3.30;;;0.90;99.90;;;;;;5012486;28;20219;-73
2022/01/07 02:06:55;;;;;;;3.20;3.10;;;0.80;99.90;;;;;;5025156;28;20212;-72
2022/01/07 02:09:28;;;;;;;3.40;3.30;;;0.80;99.90;;;;;;5028031;28;20219;-71
2022/01/07 02:11:56;;;;;;;3.58;3.40;;;0.90;99.90;;;;;;5023422;28;20192;-71
2022/01/07 02:14:24;;;;;;;3.05;2.95;;;0.90;99.90;;;;;;5026670;28;20207;-71
2022/01/07 02:16:51;;;;;;;2.97;2.88;;;0.90;99.90;;;;;;5025876;28;20646;-71
2022/01/07 02:19:19;;;;;;;3.30;3.10;;;0.80;99.90;;;;;;5027833;28;20223;-72
2022/01/07 02:21:47;;;;;;;3.40;3.30;;;0.80;99.90;;;;;;5023987;28;20204;-71
2022/01/07 02:24:14;;;;;;;2.47;2.38;;;0.80;99.90;;;;;;5024848;28;20227;-72
2022/01/07 02:26:42;;;;;;;3.05;2.95;;;0.70;99.90;;;;;;5026951;28;20257;-72
2022/01/07 02:29:09;;;;;;;2.78;2.67;;;0.70;99.90;;;;;;5027111;28;20400;-71
2022/01/07 02:31:36;;;;;;;3.38;3.08;;;0.70;99.90;;;;;;5026160;28;20257;-72
2022/01/07 02:34:03;;;;;;;2.92;2.83;;;0.70;99.90;;;;;;5026837;28;20223;-72
2022/01/07 02:36:30;;;;;;;2.95;2.85;;;0.70;99.90;;;;;;5026272;28;20214;-72
2022/01/07 02:38:58;;;;;;;3.42;3.33;;;0.70;99.90;;;;;;5010511;28;20572;-72
2022/01/07 02:41:26;;;;;;;3.90;3.70;;;0.70;99.90;;;;;;5006043;28;20196;-71
2022/01/07 02:43:53;;;;;;;3.08;2.97;;;0.70;99.90;;;;;;5006008;28;20224;-72
2022/01/07 02:46:20;;;;;;;3.05;2.95;;;0.60;99.90;;;;;;5006997;28;20666;-70
2022/01/07 02:48:47;;;;;;;3.00;2.90;;;0.60;99.90;;;;;;5004849;28;20231;-71
2022/01/07 02:51:14;;;;;;;3.00;2.90;;;0.60;99.90;;;;;;5004892;28;20246;-71
2022/01/07 02:53:42;;;;;;;3.60;3.40;;;0.50;99.90;;;;;;5019187;28;20211;-72
2022/01/07 02:56:11;;;;;;;3.28;3.08;;;0.60;99.90;;;;;;5023154;28;20199;-71
2022/01/07 02:58:38;;;;;;;3.15;3.05;;;0.60;99.90;;;;;;5021454;28;20226;-71
2022/01/07 03:01:05;;;;;;;3.40;3.30;;;0.60;99.90;;;;;;5024873;28;20196;-72
2022/01/07 03:03:32;;;;;;;3.50;3.40;;;0.60;99.90;;;;;;5024356;28;20721;-71
2022/01/07 03:05:59;;;;;;;3.30;3.20;;;0.60;99.90;;;;;;5026290;28;20571;-72
2022/01/07 03:08:26;;;;;;;3.78;3.58;;;0.60;99.90;;;;;;5024560;28;20243;-71
2022/01/07 03:10:54;;;;;;;3.70;3.50;;;0.60;99.90;;;;;;5022850;28;20188;-71
2022/01/07 03:13:22;;;;;;;3.33;3.22;;;0.60;99.90;;;;;;5023848;28;20364;-72
2022/01/07 03:15:49;;;;;;;3.35;3.20;;;0.60;99.90;;;;;;5025893;28;20196;-72
2022/01/07 03:18:16;;;;;;;3.20;3.10;;;0.60;99.90;;;;;;5023523;28;20728;-71
2022/01/07 03:20:43;;;;;;;3.17;3.08;;;0.60;99.90;;;;;;5025879;28;20224;-72
2022/01/07 03:23:12;;;;;;;3.45;3.30;;;0.60;99.90;;;;;;5035513;28;20227;-72
2022/01/07 03:25:40;;;;;;;3.45;3.35;;;0.60;99.90;;;;;;5023207;28;20206;-72
2022/01/07 03:28:08;;;;;;;3.35;3.15;;;0.60;99.90;;;;;;5024820;28;20224;-71
2022/01/07 03:30:38;;;;;;;3.78;3.67;;;0.60;99.90;;;;;;5026717;28;20285;-71
2022/01/07 03:33:05;;;;;;;3.63;3.42;;;0.60;99.90;;;;;;5017610;28;20224;-72
2022/01/07 03:35:33;;;;;;;3.75;3.55;;;0.60;99.90;;;;;;5007002;28;20200;-72
2022/01/07 03:38:00;;;;;;;3.53;3.33;;;0.50;99.90;;;;;;5008886;28;20224;-71
2022/01/07 03:40:27;;;;;;;3.70;3.50;;;0.50;99.90;;;;;;5010058;28;20212;-71
2022/01/07 03:42:54;;;;;;;3.38;3.17;;;0.50;99.90;;;;;;5008735;28;20220;-71
2022/01/07 03:45:22;;;;;;;3.63;3.42;;;0.50;99.90;;;;;;5010754;28;20201;-71
2022/01/07 03:47:51;;;;;;;3.22;3.13;;;0.40;99.90;;;;;;5013393;28;20224;-71
2022/01/07 03:50:21;;;;;;;3.50;3.30;;;0.40;99.90;;;;;;5029261;28;20650;-72
2022/01/07 03:52:49;;;;;;;3.53;3.33;;;0.40;99.90;;;;;;5025244;28;20292;-71
2022/01/07 03:55:18;;;;;;;3.42;3.33;;;0.40;99.90;;;;;;5028316;28;20191;-71
2022/01/07 03:57:45;;;;;;;3.63;3.42;;;0.40;99.90;;;;;;5027930;28;20641;-71
2022/01/07 04:00:16;;;;;;;3.63;3.42;;;0.30;99.90;;;;;;5029572;28;20216;-72
2022/01/07 04:02:44;;;;;;;3.80;3.60;;;0.20;99.90;;;;;;5029566;28;20227;-71
2022/01/07 04:05:13;;;;;;;3.20;3.10;;;0.20;99.90;;;;;;5025042;28;20563;-72
2022/01/07 04:07:40;;;;;;;3.42;3.22;;;0.10;99.90;;;;;;5028412;28;20776;-72
2022/01/07 04:10:08;;;;;;;3.25;3.15;;;0.10;99.90;;;;;;5029793;28;20630;-70
2022/01/07 04:12:35;;;;;;;3.15;3.05;;;0.10;99.90;;;;;;5027364;28;20200;-69
2022/01/07 04:15:08;;;;;;;3.25;3.15;;;0.10;99.90;;;;;;5029132;28;20199;-71
2022/01/07 04:17:36;;;;;;;3.53;3.33;;;0.10;99.90;;;;;;5037415;28;20230;-73
2022/01/07 04:20:05;;;;;;;2.90;2.80;;;0.10;99.90;;;;;;5027287;28;20797;-72
2022/01/07 04:22:34;;;;;;;3.13;3.03;;;0.10;99.90;;;;;;5023892;28;20258;-71
2022/01/07 04:25:01;;;;;;;3.35;3.25;;;0.00;99.90;;;;;;5028253;28;20737;-71
2022/01/07 04:27:28;;;;;;;3.67;3.58;;;0.00;99.90;;;;;;5027868;28;20221;-71
2022/01/07 04:29:55;;;;;;;3.33;3.22;;;0.00;99.90;;;;;;5024844;28;20658;-71
2022/01/07 04:32:22;;;;;;;2.90;2.80;;;0.10;99.90;;;;;;5022437;28;20196;-72
2022/01/07 04:34:50;;;;;;;3.20;3.10;;;0.10;99.90;;;;;;5026240;28;20601;-72
2022/01/07 04:37:18;;;;;;;3.40;3.20;;;0.00;99.90;;;;;;5025901;28;20207;-72
2022/01/07 04:39:46;;;;;;;3.72;3.53;;;0.00;99.90;;;;;;5027024;28;20269;-73
2022/01/07 04:42:13;;;;;;;3.33;3.13;;;0.00;99.90;;;;;;5028043;28;20553;-72
2022/01/07 04:44:42;;;;;;;3.60;3.40;;;-0.10;99.90;;;;;;5041130;28;20220;-72
2022/01/07 04:47:09;;;;;;;3.60;3.40;;;-0.10;99.90;;;;;;5051511;28;20199;-72
2022/01/07 04:49:37;;;;;;;4.05;3.85;;;-0.10;99.90;;;;;;5026833;28;20211;-71
2022/01/07 04:52:05;;;;;;;3.40;3.25;;;-0.20;99.90;;;;;;5029379;28;20682;-72
2022/01/07 04:54:32;;;;;;;3.50;3.30;;;-0.20;99.90;;;;;;5024472;28;20219;-72
2022/01/07 04:57:01;;;;;;;3.63;3.42;;;-0.20;99.90;;;;;;5026481;28;20195;-72
2022/01/07 04:59:28;;;;;;;3.50;3.40;;;-0.20;99.90;;;;;;5026441;28;20235;-72
2022/01/07 05:01:55;;;;;;;3.08;2.97;;;-0.20;99.90;;;;;;5024992;28;20203;-71
2022/01/07 05:04:23;;;;;;;3.30;3.20;;;-0.20;99.90;;;;;;5023637;28;20227;-72
2022/01/07 05:06:50;;;;;;;3.33;3.22;;;-0.20;99.90;;;;;;5028270;28;20724;-72
2022/01/07 05:09:18;;;;;;;3.42;3.22;;;-0.20;99.90;;;;;;5022300;28;20277;-72
2022/01/07 05:11:46;;;;;;;3.03;2.92;;;-0.30;99.90;;;;;;5037004;28;20210;-72
2022/01/07 05:14:15;;;;;;;3.40;3.22;;;-0.40;99.90;;;;;;5014791;28;20270;-72
2022/01/07 05:16:43;;;;;;;3.00;2.90;;;-0.40;99.90;;;;;;5006278;28;20208;-71
2022/01/07 05:19:10;;;;;;;3.28;3.08;;;-0.40;99.90;;;;;;5007209;28;20266;-72
2022/01/07 05:21:37;;;;;;;3.58;3.38;;;-0.30;99.90;;;;;;5009150;28;20738;-72
2022/01/07 05:24:05;;;;;;;3.90;3.70;;;-0.30;99.90;;;;;;5014507;28;20270;-73
2022/01/07 05:26:32;;;;;;;3.97;3.78;;;-0.30;99.90;;;;;;5025463;28;20262;-71
2022/01/07 05:28:59;;;;;;;3.95;3.75;;;-0.30;99.90;;;;;;5026986;28;20223;-72
2022/01/07 05:31:28;;;;;;;3.75;3.55;;;-0.40;99.90;;;;;;5028707;28;20199;-72
2022/01/07 05:33:55;;;;;;;3.95;3.75;;;-0.40;99.90;;;;;;5027781;28;20219;-71
2022/01/07 05:36:23;;;;;;;3.40;3.28;;;-0.40;99.90;;;;;;5028741;28;20202;-74
2022/01/07 05:38:51;;;;;;;3.40;3.25;;;-0.50;99.90;;;;;;5025824;28;20219;-73
2022/01/07 05:41:18;;;;;;;3.58;3.47;;;-0.50;99.90;;;;;;5028076;28;20604;-72
2022/01/07 05:43:45;;;;;;;3.30;3.20;;;-0.60;99.90;;;;;;5029283;28;20219;-71
2022/01/07 05:46:14;;;;;;;3.70;3.50;;;-0.60;99.90;;;;;;5028225;28;20208;-72
2022/01/07 05:48:44;;;;;;;3.95;3.75;;;-0.60;99.90;;;;;;5018752;28;20271;-72
2022/01/07 05:51:11;;;;;;;3.50;3.40;;;-0.60;99.90;;;;;;5052747;23;20810;-67
2022/01/07 05:53:38;;;;;;;3.67;3.47;;;-0.60;99.90;;;;;;5037826;28;20693;-67
2022/01/07 05:56:06;;;;;;;3.80;3.60;;;-0.60;99.90;;;;;;5067784;28;20194;-67
2022/01/07 05:58:34;;;;;;;4.40;4.10;;;-0.60;99.90;;;;;;5070113;28;20221;-67
2022/01/07 06:01:01;;;;;;;4.70;4.40;;;-0.70;99.90;;;;;;5071298;28;20221;-67
2022/01/07 06:03:28;;;;;;;5.10;4.80;;;-0.70;99.90;;;;;;5085020;28;20221;-67
2022/01/07 06:05:57;;;;;;;4.88;4.57;;;-0.80;99.90;;;;;;5082106;28;20197;-67
2022/01/07 06:08:23;;;;;;;4.70;4.40;;;-0.80;99.90;;;;;;5077827;28;20225;-67
2022/01/07 06:10:50;;;;;;;4.65;4.35;;;-0.80;99.90;;;;;;5086060;28;20194;-65
2022/01/07 06:13:18;;;;;;;4.53;4.22;;;-0.80;99.90;;;;;;5105101;28;20225;-66
2022/01/07 06:15:45;;;;;;;4.78;4.47;;;-0.80;99.90;;;;;;5103873;28;20200;-65
2022/01/07 06:18:12;;;;;;;3.83;3.63;;;-0.80;99.90;;;;;;5084357;28;20228;-66
2022/01/07 06:20:39;;;;;;;5.18;4.88;;;-0.80;99.90;;;;;;5080864;28;20263;-66
2022/01/07 06:23:07;;;;;;;4.72;4.43;;;-0.70;99.90;;;;;;5080913;28;20198;-66
2022/01/07 06:25:34;;;;;;;4.78;4.47;;;-0.70;99.90;;;;;;5083184;28;20190;-66
2022/01/07 06:28:02;;;;;;;4.32;4.05;;;-0.80;99.90;;;;;;5082892;28;20242;-66
2022/01/07 06:30:29;;;;;;;3.60;3.40;;;-0.80;99.90;;;;;;5081874;28;20262;-66
2022/01/07 06:32:56;;;;;;;4.20;4.00;;;-0.80;99.90;;;;;;5082249;28;20707;-65
2022/01/07 06:35:23;;;;;;;3.78;3.58;;;-0.80;99.90;;;;;;5085895;28;20625;-65
2022/01/07 06:37:50;;;;;;;3.45;3.25;;;-0.70;99.90;;;;;;5084217;28;20202;-66
2022/01/07 06:40:18;;;;;;;3.38;3.17;;;-0.70;99.90;;;;;;5081518;28;20595;-65
2022/01/07 06:42:45;;;;;;;3.80;3.60;;;-0.80;99.90;;;;;;5080797;28;20635;-65
2022/01/07 06:45:12;;;;;;;3.70;3.50;;;-0.80;99.90;;;;;;5079478;28;20225;-66
2022/01/07 06:47:40;;;;;;;3.60;3.40;;;-0.80;99.90;;;;;;5085747;28;20561;-65
2022/01/07 06:50:08;;;;;;;3.80;3.60;;;-0.80;99.90;;;;;;5083864;28;20267;-66
2022/01/07 06:52:35;;;;;;;4.05;3.85;;;-0.80;99.90;;;;;;5084236;28;20225;-66
2022/01/07 06:55:03;;;;;;;3.97;3.78;;;-0.80;99.90;;;;;;5081674;28;20260;-66
2022/01/07 06:57:31;;;;;;;4.05;3.85;;;-0.80;99.90;;;;;;5083506;28;20251;-66
2022/01/07 06:59:58;;;;;;;3.67;3.47;;;-0.80;99.90;;;;;;5080715;28;20278;-66
2022/01/07 07:02:25;;;;;;;3.65;3.45;;;-0.80;99.90;;;;;;5081569;28;20218;-66
2022/01/07 07:04:52;;;;;;;4.00;3.80;;;-0.80;99.90;;;;;;5081675;28;20711;-66
2022/01/07 07:07:19;;;;;;;3.33;3.22;;;-0.70;99.90;;;;;;5090189;28;20194;-65
2022/01/07 07:09:46;;;;;;;3.90;3.70;;;-0.70;99.90;;;;;;5087019;28;20217;-66
2022/01/07 07:12:13;;;;;;;3.60;3.47;;;-0.70;99.90;;;;;;5085807;28;20271;-66
2022/01/07 07:14:42;;;;;;;3.63;3.42;;;-0.70;99.90;;;;;;5086020;28;20234;-66
2022/01/07 07:17:10;;;;;;;3.55;3.38;;;-0.70;99.90;;;;;;5084840;28;20207;-66
2022/01/07 07:19:38;;;;;;;3.85;3.65;;;-0.70;99.90;;;;;;5088312;28;20228;-66
2022/01/07 07:22:05;;;;;;;3.28;3.08;;;-0.80;99.90;;;;;;5093101;28;20225;-66
2022/01/07 07:24:32;;;;;;;3.78;3.58;;;-0.80;99.90;;;;;;5080500;28;20210;-66
2022/01/07 07:26:59;;;;;;;4.10;3.90;;;-0.80;99.90;;;;;;5088074;28;20285;-66
2022/01/07 07:29:26;;;;;;;3.70;3.50;;;-0.90;99.90;;;;;;5086388;28;20216;-66
2022/01/07 07:31:57;;;;;;;4.05;3.85;;;-0.80;99.90;;;;;;5078870;28;20303;-65
2022/01/07 07:34:58;;;;;;;4.15;3.95;;;-0.80;99.90;;;;;;5083153;28;20268;-66
2022/01/07 07:37:24;;;;;;;4.15;3.42;;;-0.80;99.90;;;;;;5081223;28;20197;-66
2022/01/07 07:39:51;;;;;;;3.90;3.70;;;-0.80;99.90;;;;;;5083933;28;20217;-66
2022/01/07 07:42:18;;;;;;;3.75;3.55;;;-0.80;99.90;;;;;;5081409;28;20218;-66
2022/01/07 07:44:45;;;;;;;4.00;3.80;;;-0.80;99.90;;;;;;5082398;28;20263;-66
2022/01/07 07:47:14;;;;;;;2.90;2.75;;;-0.90;99.90;;;;;;5082842;28;20201;-66
2022/01/07 07:49:41;;;;;;;3.50;3.38;;;-0.90;99.90;;;;;;5080216;28;20229;-65
2022/01/07 07:52:08;;;;;;;3.80;3.60;;;-0.90;99.90;;;;;;5080554;28;20270;-66
2022/01/07 07:54:35;;;;;;;3.75;3.55;;;-0.90;99.90;;;;;;5080306;28;20644;-65
2022/01/07 07:57:02;;;;;;;4.28;4.07;;;-0.90;99.90;;;;;;5080508;28;20194;-65
2022/01/07 07:59:29;;;;;;;4.38;4.07;;;-0.90;99.90;;;;;;5083351;28;20236;-66
2022/01/07 08:02:00;;;;;;;4.13;3.90;;;-0.90;99.90;;;;;;5073187;28;20217;-66
2022/01/07 08:04:29;;;;;;;4.43;4.13;;;-0.90;99.90;;;;;;5079561;28;20841;-65
2022/01/07 08:06:56;;;;;;;4.70;4.40;;;-0.90;99.90;;;;;;5085243;28;20197;-66
2022/01/07 08:09:24;;;;;;;5.22;4.85;;;-0.90;99.90;;;;;;5079388;28;20305;-66
2022/01/07 08:11:53;;;;;;;4.57;4.28;;;-0.90;99.90;;;;;;5077729;28;20228;-65
2022/01/07 08:17:07;;;;;;;5.53;5.13;;;-0.90;99.90;;;;;;5082118;28;20702;-65
2022/01/07 08:19:36;;;;;;;4.78;4.47;;;-1.00;99.90;;;;;;5077937;28;20318;-65
2022/01/07 08:22:04;;;;;;;3.88;3.67;;;-1.00;99.90;;;;;;5079194;28;20221;-66
2022/01/07 08:24:31;;;;;;;4.40;4.00;;;-0.80;99.90;;;;;;5079189;28;20218;-66
2022/01/07 08:26:58;;;;;;;5.28;4.97;;;0.00;99.90;;;;;;5080440;28;20688;-65
2022/01/07 08:29:30;;;;;;;4.32;4.03;;;1.10;99.90;;;;;;5082936;28;20225;-68
2022/01/07 08:34:57;;;;;;;5.45;5.05;;;2.70;99.90;;;;;;5079671;28;20595;-68
2022/01/07 08:37:27;;;;;;;4.85;4.55;;;3.70;99.90;;;;;;5080511;28;20662;-66
2022/01/07 08:39:55;;;;;;;5.72;5.13;;;4.40;99.90;;;;;;5082721;28;20716;-66
2022/01/07 08:42:23;;;;;;;4.88;4.57;;;4.80;99.90;;;;;;5078292;28;20282;-66
2022/01/07 08:44:53;;;;;;;4.60;4.30;;;5.00;99.90;;;;;;5079967;28;20225;-67
2022/01/07 08:47:21;;;;;;;4.57;4.25;;;5.30;99.90;;;;;;5076518;28;20285;-69
2022/01/07 08:49:50;;;;;;;4.55;4.25;;;5.60;99.90;;;;;;5077389;28;20225;-69
2022/01/07 08:52:17;;;;;;;4.97;4.60;;;6.00;99.90;;;;;;5082167;28;20246;-69
2022/01/07 08:54:44;;;;;;;4.55;4.25;;;6.30;99.90;;;;;;5082077;28;20785;-68
2022/01/07 08:57:11;;;;;;;4.22;3.92;;;6.80;99.90;;;;;;5078867;28;20383;-68
2022/01/07 08:59:38;;;;;;;4.45;4.15;;;7.20;99.90;;;;;;5077021;28;20218;-69
2022/01/07 09:02:05;;;;;;;4.47;4.18;;;7.60;99.90;;;;;;5081080;28;20217;-70
2022/01/07 09:04:32;;;;;;;4.47;4.10;;;8.00;99.90;;;;;;5078341;28;20262;-67
2022/01/07 09:07:01;;;;;;;4.40;4.10;;;7.90;99.90;;;;;;5081676;28;20221;-67
2022/01/07 09:09:28;;;;;;;4.10;3.40;;;7.90;99.90;;;;;;5078263;28;20217;-67
2022/01/07 09:11:55;;;;;;;3.55;3.25;;;8.10;99.90;;;;;;5078904;28;20225;-67
2022/01/07 09:14:22;;;;;;;4.25;3.95;;;8.30;99.90;;;;;;5080063;28;20739;-66
2022/01/07 09:16:49;;;;;;;3.85;3.55;;;8.40;99.90;;;;;;5079353;28;20302;-67
2022/01/07 09:19:16;;;;;;;3.63;3.05;;;8.90;99.90;;;;;;5079531;28;20298;-66
2022/01/07 09:21:43;;;;;;;3.47;3.28;;;9.80;99.90;;;;;;5082889;28;20226;-67
2022/01/07 09:24:12;;;;;;;3.45;3.20;;;10.80;99.40;;;;;;5076541;28;20528;-66
2022/01/07 09:26:39;;;;;;;3.38;3.15;;;12.20;95.30;;;;;;5080418;28;20776;-66
2022/01/07 09:29:06;;;;;;;3.20;3.00;;;13.50;91.70;;;;;;5079361;28;20213;-67
2022/01/07 09:31:33;;;;;;;3.20;3.00;;;14.90;87.60;;;;;;5076463;28;20213;-69
2022/01/07 09:34:01;;;;;;;3.05;2.85;;;16.10;80.70;;;;;;5078885;28;20312;-69
2022/01/07 09:36:28;;;;;;;2.58;2.38;;;16.60;76.60;;;;;;5080292;28;20194;-69
2022/01/07 09:38:55;;;;;;;3.85;2.33;;;17.40;73.50;;;;;;5080469;28;20243;-70
2022/01/07 09:41:24;;;;;;;2.80;2.60;;;18.00;67.60;;;;;;5079173;28;20225;-71
2022/01/07 09:43:51;;;;;;;2.53;2.42;;;18.10;66.30;;;;;;5075262;28;20198;-70
2022/01/07 09:46:19;;;;;;;2.35;2.25;;;17.80;64.60;;;;;;5076864;28;20197;-70
2022/01/07 09:48:47;;;;;;;2.50;2.30;;;17.70;65.10;;;;;;5080701;28;20276;-69
2022/01/07 09:51:15;;;;;;;2.70;2.50;;;17.60;64.00;;;;;;5082163;28;20536;-70
2022/01/07 09:53:43;;;;;;;2.45;2.33;;;17.80;64.80;;;;;;5079794;28;20190;-69
2022/01/07 09:56:11;;;;;;;2.58;2.47;;;17.90;63.40;;;;;;5080775;28;20204;-69
2022/01/07 09:58:40;;;;;;;2.47;2.35;;;17.60;60.30;;;;;;5078509;28;20280;-69
2022/01/07 10:01:10;;;;;;;2.70;2.60;;;17.20;62.20;;;;;;5078601;28;20225;-69
2022/01/07 10:03:39;;;;;;;3.38;3.10;;;16.50;62.80;;;;;;5080367;28;20291;-68
2022/01/07 10:06:20;;;;;;;3.15;2.85;;;15.30;65.70;;;;;;5079113;28;20229;-69
2022/01/07 10:09:00;;;;;;;3.28;3.08;;;13.90;68.80;;;;;;5077524;28;20270;-70
2022/01/07 10:11:27;;;;;;;3.05;2.60;;;12.70;72.80;;;;;;5076582;28;20240;-70
2022/01/07 10:14:18;;;;;;;2.85;2.65;;;11.40;76.50;;;;;;5078024;28;20431;-69
2022/01/07 10:16:53;;;;;;;3.17;2.88;;;10.00;81.50;;;;;;5080503;28;20228;-69
2022/01/07 10:19:31;;;;;;;3.25;3.05;;;9.30;84.80;;;;;;5083078;28;20220;-69
2022/01/07 10:21:58;;;;;;;3.60;3.30;;;8.90;87.50;;;;;;5078399;28;20699;-69
2022/01/07 10:24:26;;;;;;;2.65;2.45;;;9.00;89.30;;;;;;5080342;28;20221;-69
2022/01/07 10:27:12;;;;;;;2.88;2.67;;;9.00;88.60;;;;;;5088018;28;20198;-68
2022/01/07 10:29:42;;;;;;;3.00;2.80;;;8.70;88.90;;;;;;5085198;28;20272;-68
2022/01/07 10:32:26;;;;;;;2.85;2.65;;;8.30;89.40;;;;;;5082944;28;20214;-68
2022/01/07 10:35:18;;;;;;;2.72;2.53;;;8.20;90.50;;;;;;5084153;28;20217;-69
2022/01/07 10:37:50;;;;;;;3.10;2.90;;;8.30;90.30;;;;;;5058635;28;20591;-69
2022/01/07 10:40:27;;;;;;;3.00;2.80;;;8.30;90.40;;;;;;5082737;28;20236;-67
2022/01/07 10:42:55;;;;;;;4.88;3.00;;;8.30;90.90;;;;;;5083533;28;20225;-67
2022/01/07 10:45:24;;;;;;;2.95;2.75;;;8.50;91.30;;;;;;5080446;28;20237;-67
2022/01/07 10:47:53;;;;;;;2.72;2.53;;;8.70;91.10;;;;;;5080302;28;20205;-66
2022/01/07 10:50:23;;;;;;;3.10;2.80;;;8.80;91.20;;;;;;5086613;28;20464;-67
2022/01/07 10:52:50;;;;;;;3.80;3.05;;;8.80;91.10;;;;;;5091396;28;20217;-69
2022/01/07 10:55:19;;;;;;;3.22;2.95;;;8.70;91.20;;;;;;5090043;28;20536;-68
2022/01/07 10:57:48;;;;;;;2.80;2.60;;;8.50;91.40;;;;;;5083610;28;20193;-67
2022/01/07 11:00:17;;;;;;;3.53;3.22;;;8.60;91.30;;;;;;5082062;28;20274;-68
2022/01/07 11:02:46;;;;;;;2.95;2.75;;;9.00;91.50;;;;;;5085335;28;20702;-70
2022/01/07 11:05:14;;;;;;;3.03;2.83;;;9.50;91.20;;;;;;5079287;28;20221;-69
2022/01/07 11:07:42;;;;;;;3.33;3.05;;;9.60;90.30;;;;;;5074752;28;20441;-66
2022/01/07 11:10:09;;;;;;;3.35;3.15;;;9.50;90.80;;;;;;5075165;28;20225;-69
2022/01/07 11:12:37;;;;;;;3.50;3.15;;;9.60;90.80;;;;;;5076196;28;20216;-69
2022/01/07 11:15:08;;;;;;;3.33;3.10;;;9.40;90.90;;;;;;5079380;28;20295;-69
2022/01/07 11:17:36;;;;;;;3.38;3.13;;;9.40;92.00;;;;;;5075913;28;20308;-69
2022/01/07 11:20:07;;;;;;;3.00;2.80;;;9.60;93.60;;;;;;5075570;28;20518;-68
2022/01/07 11:22:38;;;;;;;3.03;2.83;;;9.80;94.60;;;;;;5076781;28;20306;-68
2022/01/07 11:25:10;;;;;;;3.78;2.70;;;9.60;92.00;;;;;;5077787;28;20221;-68
2022/01/07 11:27:49;;;;;;;3.05;2.63;;;9.20;91.30;;;;;;5075866;28;20281;-68
2022/01/07 11:30:18;;;;;;;3.03;2.83;;;8.60;91.50;;;;;;5075017;28;20228;-68
2022/01/07 11:32:45;;;;;;;3.00;2.80;;;8.40;92.10;;;;;;5072548;28;20205;-70
2022/01/07 11:35:50;;;;;;;3.10;2.90;;;8.20;91.00;;;;;;5076654;28;20225;-69
2022/01/07 11:38:36;;;;;;;3.10;2.90;;;8.00;91.20;;;;;;5073883;28;20199;-69
2022/01/07 11:41:11;;;;;;;3.45;2.72;;;8.10;91.60;;;;;;5074965;28;20232;-68
2022/01/07 11:43:44;;;;;;;2.80;2.70;;;8.40;91.30;;;;;;5077419;28;20213;-68
2022/01/07 11:46:32;;;;;;;5.78;2.63;;;8.40;90.80;;;;;;5073518;28;20213;-68
2022/01/07 11:49:01;;;;;;;2.70;2.50;;;8.40;91.10;;;;;;5074145;28;20198;-68
2022/01/07 11:54:03;;;;;;;2.53;2.42;;;8.50;90.40;;;;;;5054104;28;20206;-68
2022/01/07 11:56:32;;;;;;;3.10;2.90;;;8.40;90.30;;;;;;5036585;28;20219;-67
2022/01/07 11:59:10;;;;;;;2.72;2.47;;;8.50;90.90;;;;;;5040642;28;20249;-72
2022/01/07 12:01:40;;;;;;;2.45;2.35;;;8.60;90.40;;;;;;5038475;28;20215;-73
2022/01/07 12:04:26;;;;;;;2.92;2.72;;;8.50;90.70;;;;;;5040354;28;20199;-72
2022/01/07 12:06:55;;;;;;;2.83;2.63;;;8.30;90.80;;;;;;5038264;28;20214;-69
2022/01/07 12:09:30;;;;;;;2.70;2.50;;;8.20;90.70;;;;;;5038806;28;20268;-69
2022/01/07 12:12:00;;;;;;;2.85;2.65;;;8.10;90.70;;;;;;5039062;28;20217;-70
2022/01/07 12:14:29;;;;;;;2.90;2.70;;;7.80;90.70;;;;;;5038488;28;20572;-71
2022/01/07 12:16:59;;;;;;;2.85;2.75;;;7.60;91.10;;;;;;5038994;28;20228;-71
2022/01/07 12:20:23;;;;;;;3.10;2.90;;;7.50;91.10;;;;;;5040541;28;20346;-71
2022/01/07 12:22:52;;;;;;;3.08;2.70;;;7.60;91.30;;;;;;5044943;28;20229;-73
2022/01/07 12:25:21;;;;;;;3.10;2.90;;;7.60;91.80;;;;;;5052271;28;20198;-71
2022/01/07 12:27:49;;;;;;;2.72;2.53;;;7.60;92.10;;;;;;5041751;28;20611;-71
2022/01/07 12:30:16;;;;;;;2.63;2.50;;;7.40;91.60;;;;;;5038171;28;20202;-72
2022/01/07 12:32:44;;;;;;;2.72;2.53;;;7.40;91.90;;;;;;5051825;28;20222;-73
2022/01/07 12:35:12;;;;;;;2.65;2.45;;;7.50;91.80;;;;;;5058992;28;20194;-72
2022/01/07 12:37:39;;;;;;;2.60;2.40;;;7.60;91.90;;;;;;5046786;28;20302;-72
2022/01/07 12:40:10;;;;;;;2.78;2.67;;;7.60;91.80;;;;;;5060372;28;20203;-71
2022/01/07 12:42:45;;;;;;;3.20;2.90;;;7.30;91.70;;;;;;5063840;28;20226;-71
2022/01/07 12:45:19;;;;;;;2.80;2.60;;;7.40;92.00;;;;;;5062066;28;20664;-72
2022/01/07 12:47:46;;;;;;;3.05;2.85;;;7.30;91.30;;;;;;5060843;28;20271;-72
2022/01/07 12:50:14;;;;;;;2.83;2.63;;;7.30;92.10;;;;;;5054937;28;20202;-72
2022/01/07 12:52:43;;;;;;;2.90;2.70;;;7.40;91.90;;;;;;5052392;28;20238;-72
2022/01/07 12:55:12;;;;;;;4.72;2.72;;;7.70;91.70;;;;;;5037496;28;20214;-72
2022/01/07 12:57:42;;;;;;;2.63;2.53;;;7.80;91.70;;;;;;5040109;28;20227;-71
2022/01/07 13:00:15;;;;;;;2.72;2.63;;;7.90;91.70;;;;;;5036655;28;20719;-72
2022/01/07 13:02:43;;;;;;;2.65;2.53;;;7.50;91.40;;;;;;5040805;28;20337;-72
2022/01/07 13:05:21;;;;;;;2.72;2.58;;;6.90;91.60;;;;;;5041902;28;20199;-73
2022/01/07 13:07:50;;;;;;;2.92;2.72;;;6.40;92.20;;;;;;5039554;28;20258;-71
2022/01/07 13:10:20;;;;;;;2.90;2.70;;;6.10;92.50;;;;;;5038358;28;20201;-72